sensor_id;sensor_type;location;lat;lon;timestamp;pressure;altitude;pressure_sealevel;temperature;humidity
72110;BME280;59983;52.010;5.420;2023-07-31T00:01:12;100944.38;;;15.08;100.00
72110;BME280;59983;52.010;5.420;2023-07-31T00:03:39;100934.63;;;15.10;100.00
72110;BME280;59983;52.010;5.420;2023-07-31T00:06:05;100937.38;;;15.10;100.00
72110;BME280;59983;52.010;5.420;2023-07-31T00:08:32;100926.88;;;15.12;100.00
72110;BME280;59983;52.010;5.420;2023-07-31T00:10:58;100935.06;;;15.12;100.00
72110;BME280;59983;52.010;5.420;2023-07-31T00:13:25;100928.06;;;15.15;100.00
72110;BME280;59983;52.010;5.420;2023-07-31T00:15:51;100912.44;;;15.15;100.00
72110;BME280;59983;52.010;5.420;2023-07-31T00:18:18;100915.66;;;15.21;100.00
72110;BME280;59983;52.010;5.420;2023-07-31T00:20:44;100917.31;;;15.29;100.00
72110;BME280;59983;52.010;5.420;2023-07-31T00:23:11;100917.00;;;15.38;100.00
72110;BME280;59983;52.010;5.420;2023-07-31T00:25:37;100901.47;;;15.49;100.00
72110;BME280;59983;52.010;5.420;2023-07-31T00:28:04;100907.47;;;15.62;100.00
72110;BME280;59983;52.010;5.420;2023-07-31T00:30:31;100907.53;;;15.69;100.00
72110;BME280;59983;52.010;5.420;2023-07-31T00:32:57;100916.59;;;15.76;100.00
72110;BME280;59983;52.010;5.420;2023-07-31T00:35:24;100911.56;;;15.82;100.00
72110;BME280;59983;52.010;5.420;2023-07-31T00:37:50;100906.56;;;15.91;100.00
72110;BME280;59983;52.010;5.420;2023-07-31T00:40:17;100915.56;;;15.95;100.00
72110;BME280;59983;52.010;5.420;2023-07-31T00:42:43;100915.63;;;16.02;100.00
72110;BME280;59983;52.010;5.420;2023-07-31T00:45:10;100912.13;;;16.05;100.00
72110;BME280;59983;52.010;5.420;2023-07-31T00:47:37;100912.91;;;16.06;100.00
72110;BME280;59983;52.010;5.420;2023-07-31T00:50:04;100915.25;;;16.07;100.00
72110;BME280;59983;52.010;5.420;2023-07-31T00:52:31;100905.91;;;16.08;100.00
72110;BME280;59983;52.010;5.420;2023-07-31T00:54:58;100914.50;;;16.10;100.00
72110;BME280;59983;52.010;5.420;2023-07-31T00:57:24;100898.09;;;16.10;100.00
72110;BME280;59983;52.010;5.420;2023-07-31T00:59:51;100904.34;;;16.11;100.00
72110;BME280;59983;52.010;5.420;2023-07-31T01:02:17;100904.75;;;16.13;100.00
72110;BME280;59983;52.010;5.420;2023-07-31T01:04:44;100891.06;;;16.13;100.00
72110;BME280;59983;52.010;5.420;2023-07-31T01:07:20;100908.25;;;16.13;100.00
72110;BME280;59983;52.010;5.420;2023-07-31T01:10:19;100898.88;;;16.14;100.00
72110;BME280;59983;52.010;5.420;2023-07-31T01:12:48;100907.09;;;16.14;100.00
72110;BME280;59983;52.010;5.420;2023-07-31T01:15:16;100901.63;;;16.14;100.00
72110;BME280;59983;52.010;5.420;2023-07-31T01:17:43;100893.41;;;16.14;100.00
72110;BME280;59983;52.010;5.420;2023-07-31T01:20:20;100896.94;;;16.15;100.00
72110;BME280;59983;52.010;5.420;2023-07-31T01:28:15;100896.94;;;16.15;100.00
72110;BME280;59983;52.010;5.420;2023-07-31T01:30:48;100889.50;;;16.15;100.00
72110;BME280;59983;52.010;5.420;2023-07-31T01:33:16;100888.72;;;16.15;100.00
72110;BME280;59983;52.010;5.420;2023-07-31T01:35:44;100880.13;;;16.17;100.00
72110;BME280;59983;52.010;5.420;2023-07-31T01:38:11;100889.94;;;16.18;100.00
72110;BME280;59983;52.010;5.420;2023-07-31T01:40:41;100891.06;;;16.17;100.00
72110;BME280;59983;52.010;5.420;2023-07-31T01:43:08;100888.34;;;16.17;100.00
72110;BME280;59983;52.010;5.420;2023-07-31T01:45:34;100894.97;;;16.12;100.00
72110;BME280;59983;52.010;5.420;2023-07-31T01:48:01;100893.00;;;16.12;100.00
72110;BME280;59983;52.010;5.420;2023-07-31T01:50:27;100889.47;;;16.08;100.00
72110;BME280;59983;52.010;5.420;2023-07-31T01:52:54;100899.63;;;16.08;100.00
72110;BME280;59983;52.010;5.420;2023-07-31T01:55:20;100900.78;;;16.07;100.00
72110;BME280;59983;52.010;5.420;2023-07-31T01:57:47;100901.94;;;16.02;100.00
72110;BME280;59983;52.010;5.420;2023-07-31T02:00:14;100904.69;;;16.02;100.00
72110;BME280;59983;52.010;5.420;2023-07-31T02:02:41;100904.63;;;15.99;100.00
72110;BME280;59983;52.010;5.420;2023-07-31T02:05:08;100895.25;;;15.96;100.00
72110;BME280;59983;52.010;5.420;2023-07-31T02:07:34;100881.56;;;15.96;100.00
72110;BME280;59983;52.010;5.420;2023-07-31T02:10:01;100866.69;;;15.94;100.00
72110;BME280;59983;52.010;5.420;2023-07-31T02:12:28;100877.25;;;15.92;100.00
72110;BME280;59983;52.010;5.420;2023-07-31T02:14:57;100877.25;;;15.92;100.00
72110;BME280;59983;52.010;5.420;2023-07-31T02:17:24;100869.00;;;15.88;100.00
72110;BME280;59983;52.010;5.420;2023-07-31T02:19:50;100871.34;;;15.90;100.00
72110;BME280;59983;52.010;5.420;2023-07-31T02:22:17;100866.25;;;15.88;100.00
72110;BME280;59983;52.010;5.420;2023-07-31T02:24:44;100860.78;;;15.88;100.00
72110;BME280;59983;52.010;5.420;2023-07-31T02:27:11;100850.63;;;15.89;100.00
72110;BME280;59983;52.010;5.420;2023-07-31T02:29:37;100847.50;;;15.90;100.00
72110;BME280;59983;52.010;5.420;2023-07-31T02:32:04;100843.22;;;15.89;100.00
72110;BME280;59983;52.010;5.420;2023-07-31T02:34:31;100847.94;;;15.92;100.00
72110;BME280;59983;52.010;5.420;2023-07-31T02:36:57;100846.78;;;15.93;100.00
72110;BME280;59983;52.010;5.420;2023-07-31T02:39:24;100849.91;;;15.95;100.00
72110;BME280;59983;52.010;5.420;2023-07-31T02:41:50;100831.91;;;15.94;100.00
72110;BME280;59983;52.010;5.420;2023-07-31T02:44:17;100844.03;;;15.97;100.00
72110;BME280;59983;52.010;5.420;2023-07-31T02:46:43;100844.44;;;15.95;100.00
72110;BME280;59983;52.010;5.420;2023-07-31T02:49:10;100843.25;;;15.96;100.00
72110;BME280;59983;52.010;5.420;2023-07-31T02:51:36;100842.47;;;15.96;100.00
72110;BME280;59983;52.010;5.420;2023-07-31T02:54:03;100840.91;;;15.95;100.00
72110;BME280;59983;52.010;5.420;2023-07-31T02:56:29;100838.19;;;15.95;100.00
72110;BME280;59983;52.010;5.420;2023-07-31T02:58:56;100838.97;;;15.95;100.00
72110;BME280;59983;52.010;5.420;2023-07-31T03:01:22;100839.75;;;15.96;100.00
72110;BME280;59983;52.010;5.420;2023-07-31T03:03:49;100836.59;;;15.94;100.00
72110;BME280;59983;52.010;5.420;2023-07-31T03:06:15;100836.59;;;15.94;100.00
72110;BME280;59983;52.010;5.420;2023-07-31T03:08:42;100843.66;;;15.95;100.00
72110;BME280;59983;52.010;5.420;2023-07-31T03:11:08;100825.66;;;15.94;100.00
72110;BME280;59983;52.010;5.420;2023-07-31T03:13:35;100831.53;;;15.92;100.00
72110;BME280;59983;52.010;5.420;2023-07-31T03:16:01;100835.44;;;15.95;100.00
72110;BME280;59983;52.010;5.420;2023-07-31T03:18:28;100845.19;;;15.92;100.00
72110;BME280;59983;52.010;5.420;2023-07-31T03:20:55;100830.34;;;15.93;100.00
72110;BME280;59983;52.010;5.420;2023-07-31T03:23:21;100826.06;;;15.92;100.00
72110;BME280;59983;52.010;5.420;2023-07-31T03:26:06;100827.19;;;15.88;100.00
72110;BME280;59983;52.010;5.420;2023-07-31T03:28:33;100819.75;;;15.88;100.00
72110;BME280;59983;52.010;5.420;2023-07-31T03:31:00;100824.44;;;15.88;100.00
72110;BME280;59983;52.010;5.420;2023-07-31T03:33:26;100825.22;;;15.88;100.00
72110;BME280;59983;52.010;5.420;2023-07-31T03:35:53;100817.78;;;15.85;100.00
72110;BME280;59983;52.010;5.420;2023-07-31T03:38:20;100818.56;;;15.85;100.00
72110;BME280;59983;52.010;5.420;2023-07-31T03:40:46;100819.75;;;15.84;100.00
72110;BME280;59983;52.010;5.420;2023-07-31T03:43:13;100809.56;;;15.81;100.00
72110;BME280;59983;52.010;5.420;2023-07-31T03:45:39;100819.34;;;15.82;100.00
72110;BME280;59983;52.010;5.420;2023-07-31T03:48:06;100824.41;;;15.80;100.00
72110;BME280;59983;52.010;5.420;2023-07-31T03:50:34;100820.13;;;15.83;100.00
72110;BME280;59983;52.010;5.420;2023-07-31T03:53:00;100818.13;;;15.80;100.00
72110;BME280;59983;52.010;5.420;2023-07-31T03:55:27;100813.09;;;15.82;100.00
72110;BME280;59983;52.010;5.420;2023-07-31T03:57:53;100811.50;;;15.81;100.00
72110;BME280;59983;52.010;5.420;2023-07-31T04:00:20;100813.84;;;15.79;100.00
72110;BME280;59983;52.010;5.420;2023-07-31T04:02:48;100805.25;;;15.80;100.00
72110;BME280;59983;52.010;5.420;2023-07-31T04:05:15;100816.56;;;15.79;100.00
72110;BME280;59983;52.010;5.420;2023-07-31T04:07:41;100818.53;;;15.78;100.00
72110;BME280;59983;52.010;5.420;2023-07-31T04:10:08;100806.03;;;15.77;100.00
72110;BME280;59983;52.010;5.420;2023-07-31T04:12:38;100802.91;;;15.79;100.00
72110;BME280;59983;52.010;5.420;2023-07-31T04:15:05;100792.34;;;15.77;100.00
72110;BME280;59983;52.010;5.420;2023-07-31T04:17:32;100791.19;;;15.78;100.00
72110;BME280;59983;52.010;5.420;2023-07-31T04:19:59;100791.19;;;15.78;100.00
72110;BME280;59983;52.010;5.420;2023-07-31T04:22:25;100788.44;;;15.78;100.00
72110;BME280;59983;52.010;5.420;2023-07-31T04:24:52;100777.50;;;15.78;100.00
72110;BME280;59983;52.010;5.420;2023-07-31T04:27:18;100779.44;;;15.78;100.00
72110;BME280;59983;52.010;5.420;2023-07-31T04:29:45;100781.81;;;15.79;100.00
72110;BME280;59983;52.010;5.420;2023-07-31T04:32:13;100779.06;;;15.79;100.00
72110;BME280;59983;52.010;5.420;2023-07-31T04:34:42;100773.19;;;15.77;100.00
72110;BME280;59983;52.010;5.420;2023-07-31T04:37:09;100779.84;;;15.76;100.00
72110;BME280;59983;52.010;5.420;2023-07-31T04:39:35;100784.53;;;15.76;100.00
72110;BME280;59983;52.010;5.420;2023-07-31T04:42:02;100785.69;;;15.75;100.00
72110;BME280;59983;52.010;5.420;2023-07-31T04:44:29;100780.22;;;15.75;100.00
72110;BME280;59983;52.010;5.420;2023-07-31T04:46:56;100775.16;;;15.73;100.00
72110;BME280;59983;52.010;5.420;2023-07-31T04:49:23;100781.41;;;15.74;100.00
72110;BME280;59983;52.010;5.420;2023-07-31T04:51:49;100788.03;;;15.73;100.00
72110;BME280;59983;52.010;5.420;2023-07-31T04:54:16;100765.34;;;15.69;100.00
72110;BME280;59983;52.010;5.420;2023-07-31T04:56:43;100773.13;;;15.67;100.00
72110;BME280;59983;52.010;5.420;2023-07-31T04:59:09;100770.78;;;15.65;100.00
72110;BME280;59983;52.010;5.420;2023-07-31T05:01:36;100759.84;;;15.65;100.00
72110;BME280;59983;52.010;5.420;2023-07-31T05:04:02;100761.81;;;15.65;100.00
72110;BME280;59983;52.010;5.420;2023-07-31T05:06:29;100759.06;;;15.65;100.00
72110;BME280;59983;52.010;5.420;2023-07-31T05:08:56;100755.56;;;15.64;100.00
72110;BME280;59983;52.010;5.420;2023-07-31T05:11:22;100745.75;;;15.63;100.00
72110;BME280;59983;52.010;5.420;2023-07-31T05:13:49;100759.81;;;15.62;100.00
72110;BME280;59983;52.010;5.420;2023-07-31T05:16:15;100762.13;;;15.59;100.00
72110;BME280;59983;52.010;5.420;2023-07-31T05:18:42;100757.03;;;15.58;100.00
72110;BME280;59983;52.010;5.420;2023-07-31T05:21:08;100764.06;;;15.55;100.00
72110;BME280;59983;52.010;5.420;2023-07-31T05:23:35;100761.28;;;15.52;100.00
72110;BME280;59983;52.010;5.420;2023-07-31T05:26:05;100759.31;;;15.49;100.00
72110;BME280;59983;52.010;5.420;2023-07-31T05:28:34;100758.13;;;15.46;100.00
72110;BME280;59983;52.010;5.420;2023-07-31T05:31:03;100752.66;;;15.46;100.00
72110;BME280;59983;52.010;5.420;2023-07-31T05:33:30;100759.66;;;15.44;100.00
72110;BME280;59983;52.010;5.420;2023-07-31T05:35:57;100756.16;;;15.43;100.00
72110;BME280;59983;52.010;5.420;2023-07-31T05:38:24;100737.41;;;15.42;100.00
72110;BME280;59983;52.010;5.420;2023-07-31T05:40:50;100738.19;;;15.42;100.00
72110;BME280;59983;52.010;5.420;2023-07-31T05:43:17;100735.84;;;15.41;100.00
72110;BME280;59983;52.010;5.420;2023-07-31T05:45:43;100738.56;;;15.41;100.00
72110;BME280;59983;52.010;5.420;2023-07-31T05:48:10;100729.97;;;15.39;100.00
72110;BME280;59983;52.010;5.420;2023-07-31T05:50:36;100728.03;;;15.43;100.00
72110;BME280;59983;52.010;5.420;2023-07-31T05:53:06;100729.19;;;15.42;100.00
72110;BME280;59983;52.010;5.420;2023-07-31T05:55:34;100714.75;;;15.41;100.00
72110;BME280;59983;52.010;5.420;2023-07-31T05:58:01;100717.88;;;15.43;100.00
72110;BME280;59983;52.010;5.420;2023-07-31T06:00:27;100703.44;;;15.43;100.00
72110;BME280;59983;52.010;5.420;2023-07-31T06:02:54;100710.47;;;15.44;100.00
72110;BME280;59983;52.010;5.420;2023-07-31T06:05:20;100702.66;;;15.42;100.00
72110;BME280;59983;52.010;5.420;2023-07-31T06:07:47;100705.78;;;15.44;100.00
72110;BME280;59983;52.010;5.420;2023-07-31T06:10:14;100700.69;;;15.43;100.00
72110;BME280;59983;52.010;5.420;2023-07-31T06:12:40;100703.44;;;15.43;100.00
72110;BME280;59983;52.010;5.420;2023-07-31T06:15:07;100698.34;;;15.45;100.00
72110;BME280;59983;52.010;5.420;2023-07-31T06:17:33;100701.09;;;15.45;100.00
72110;BME280;59983;52.010;5.420;2023-07-31T06:20:00;100702.66;;;15.46;100.00
72110;BME280;59983;52.010;5.420;2023-07-31T06:22:26;100694.09;;;15.47;100.00
72110;BME280;59983;52.010;5.420;2023-07-31T06:24:53;100702.31;;;15.51;100.00
72110;BME280;59983;52.010;5.420;2023-07-31T06:27:20;100691.38;;;15.51;100.00
72110;BME280;59983;52.010;5.420;2023-07-31T06:29:46;100695.28;;;15.53;100.00
72110;BME280;59983;52.010;5.420;2023-07-31T06:32:14;100688.25;;;15.52;100.00
72110;BME280;59983;52.010;5.420;2023-07-31T06:34:40;100685.56;;;15.56;100.00
72110;BME280;59983;52.010;5.420;2023-07-31T06:37:07;100677.72;;;15.54;100.00
72110;BME280;59983;52.010;5.420;2023-07-31T06:39:33;100681.25;;;15.58;100.00
72110;BME280;59983;52.010;5.420;2023-07-31T06:42:00;100682.03;;;15.59;100.00
72110;BME280;59983;52.010;5.420;2023-07-31T06:44:26;100671.88;;;15.59;100.00
72110;BME280;59983;52.010;5.420;2023-07-31T06:46:53;100661.75;;;15.60;100.00
72110;BME280;59983;52.010;5.420;2023-07-31T06:49:19;100670.78;;;15.64;100.00
72110;BME280;59983;52.010;5.420;2023-07-31T06:51:46;100668.84;;;15.68;100.00
72110;BME280;59983;52.010;5.420;2023-07-31T06:54:13;100664.94;;;15.69;100.00
72110;BME280;59983;52.010;5.420;2023-07-31T06:56:39;100663.41;;;15.75;100.00
72110;BME280;59983;52.010;5.420;2023-07-31T06:59:07;100660.28;;;15.80;100.00
72110;BME280;59983;52.010;5.420;2023-07-31T07:01:34;100670.88;;;15.82;100.00
72110;BME280;59983;52.010;5.420;2023-07-31T07:04:01;100657.97;;;15.86;100.00
72110;BME280;59983;52.010;5.420;2023-07-31T07:06:27;100656.41;;;15.89;100.00
72110;BME280;59983;52.010;5.420;2023-07-31T07:08:54;100649.41;;;15.91;100.00
72110;BME280;59983;52.010;5.420;2023-07-31T07:11:20;100650.97;;;15.92;100.00
72110;BME280;59983;52.010;5.420;2023-07-31T07:13:47;100648.25;;;15.96;100.00
72110;BME280;59983;52.010;5.420;2023-07-31T07:16:13;100646.69;;;15.98;100.00
72110;BME280;59983;52.010;5.420;2023-07-31T07:18:40;100652.16;;;15.98;100.00
72110;BME280;59983;52.010;5.420;2023-07-31T07:21:26;100649.44;;;16.02;100.00
72110;BME280;59983;52.010;5.420;2023-07-31T07:23:53;100652.56;;;16.04;100.00
72110;BME280;59983;52.010;5.420;2023-07-31T07:26:19;100658.81;;;16.04;100.00
72110;BME280;59983;52.010;5.420;2023-07-31T07:28:46;100642.44;;;16.08;100.00
72110;BME280;59983;52.010;5.420;2023-07-31T07:31:13;100642.03;;;16.09;100.00
72110;BME280;59983;52.010;5.420;2023-07-31T07:33:39;100644.78;;;16.09;100.00
72110;BME280;59983;52.010;5.420;2023-07-31T07:36:06;100645.16;;;16.11;100.00
72110;BME280;59983;52.010;5.420;2023-07-31T07:38:36;100651.41;;;16.12;100.00
72110;BME280;59983;52.010;5.420;2023-07-31T07:41:03;100649.47;;;16.12;100.00
72110;BME280;59983;52.010;5.420;2023-07-31T07:43:30;100649.06;;;16.14;100.00
72110;BME280;59983;52.010;5.420;2023-07-31T07:45:56;100638.50;;;16.16;100.00
72110;BME280;59983;52.010;5.420;2023-07-31T07:48:23;100640.50;;;16.23;100.00
72110;BME280;59983;52.010;5.420;2023-07-31T07:50:51;100634.25;;;16.26;100.00
72110;BME280;59983;52.010;5.420;2023-07-31T07:53:18;100640.13;;;16.31;100.00
72110;BME280;59983;52.010;5.420;2023-07-31T07:55:44;100654.19;;;16.33;100.00
72110;BME280;59983;52.010;5.420;2023-07-31T07:58:11;100643.63;;;16.32;100.00
72110;BME280;59983;52.010;5.420;2023-07-31T08:00:38;100639.72;;;16.33;100.00
72110;BME280;59983;52.010;5.420;2023-07-31T08:03:04;100633.09;;;16.30;100.00
72110;BME280;59983;52.010;5.420;2023-07-31T08:05:31;100632.69;;;16.32;100.00
72110;BME280;59983;52.010;5.420;2023-07-31T08:08:00;100638.19;;;16.35;100.00
72110;BME280;59983;52.010;5.420;2023-07-31T08:10:27;100640.13;;;16.35;100.00
72110;BME280;59983;52.010;5.420;2023-07-31T08:12:54;100627.59;;;16.34;100.00
72110;BME280;59983;52.010;5.420;2023-07-31T08:15:20;100626.06;;;16.36;100.00
72110;BME280;59983;52.010;5.420;2023-07-31T08:17:47;100617.84;;;16.40;100.00
72110;BME280;59983;52.010;5.420;2023-07-31T08:20:13;100628.00;;;16.43;100.00
72110;BME280;59983;52.010;5.420;2023-07-31T08:22:41;100626.84;;;16.44;100.00
72110;BME280;59983;52.010;5.420;2023-07-31T08:25:07;100624.88;;;16.52;100.00
72110;BME280;59983;52.010;5.420;2023-07-31T08:27:34;100617.47;;;16.56;100.00
72110;BME280;59983;52.010;5.420;2023-07-31T08:30:00;100629.97;;;16.60;100.00
72110;BME280;59983;52.010;5.420;2023-07-31T08:32:27;100617.84;;;16.58;100.00
72110;BME280;59983;52.010;5.420;2023-07-31T08:34:53;100617.88;;;16.61;100.00
72110;BME280;59983;52.010;5.420;2023-07-31T08:37:20;100619.41;;;16.59;100.00
72110;BME280;59983;52.010;5.420;2023-07-31T08:39:47;100609.63;;;16.58;100.00
72110;BME280;59983;52.010;5.420;2023-07-31T08:42:13;100617.84;;;16.58;100.00
72110;BME280;59983;52.010;5.420;2023-07-31T08:44:40;100613.53;;;16.60;100.00
72110;BME280;59983;52.010;5.420;2023-07-31T08:47:07;100617.47;;;16.63;100.00
72110;BME280;59983;52.010;5.420;2023-07-31T08:49:34;100613.56;;;16.64;100.00
72110;BME280;59983;52.010;5.420;2023-07-31T08:52:02;100616.69;;;16.66;100.00
72110;BME280;59983;52.010;5.420;2023-07-31T08:54:29;100608.84;;;16.64;100.00
72110;BME280;59983;52.010;5.420;2023-07-31T08:56:57;100617.84;;;16.65;100.00
72110;BME280;59983;52.010;5.420;2023-07-31T08:59:31;100626.47;;;16.67;100.00
72110;BME280;59983;52.010;5.420;2023-07-31T09:02:07;100602.22;;;16.69;100.00
72110;BME280;59983;52.010;5.420;2023-07-31T09:04:35;100617.88;;;16.72;100.00
72110;BME280;59983;52.010;5.420;2023-07-31T09:07:03;100608.09;;;16.71;100.00
72110;BME280;59983;52.010;5.420;2023-07-31T09:09:31;100612.41;;;16.68;100.00
72110;BME280;59983;52.010;5.420;2023-07-31T09:11:58;100623.38;;;16.72;100.00
72110;BME280;59983;52.010;5.420;2023-07-31T09:14:26;100609.25;;;16.66;100.00
72110;BME280;59983;52.010;5.420;2023-07-31T09:16:57;100617.06;;;16.68;100.00
72110;BME280;59983;52.010;5.420;2023-07-31T09:19:35;100612.81;;;16.70;100.00
72110;BME280;59983;52.010;5.420;2023-07-31T09:22:06;100612.41;;;16.72;100.00
72110;BME280;59983;52.010;5.420;2023-07-31T09:24:34;100601.84;;;16.74;100.00
72110;BME280;59983;52.010;5.420;2023-07-31T09:27:01;100621.00;;;16.78;100.00
72110;BME280;59983;52.010;5.420;2023-07-31T09:29:28;100613.19;;;16.80;100.00
72110;BME280;59983;52.010;5.420;2023-07-31T09:31:56;100597.13;;;16.82;100.00
72110;BME280;59983;52.010;5.420;2023-07-31T09:34:37;100601.44;;;16.83;100.00
72110;BME280;59983;52.010;5.420;2023-07-31T09:37:05;100594.78;;;16.84;100.00
72110;BME280;59983;52.010;5.420;2023-07-31T09:39:32;100599.88;;;16.89;100.00
72110;BME280;59983;52.010;5.420;2023-07-31T09:41:59;100594.78;;;16.91;100.00
72110;BME280;59983;52.010;5.420;2023-07-31T09:44:39;100590.47;;;16.97;100.00
72110;BME280;59983;52.010;5.420;2023-07-31T09:47:21;100602.19;;;17.05;100.00
72110;BME280;59983;52.010;5.420;2023-07-31T09:49:48;100600.22;;;17.09;100.00
72110;BME280;59983;52.010;5.420;2023-07-31T09:52:15;100588.88;;;17.10;100.00
72110;BME280;59983;52.010;5.420;2023-07-31T09:54:41;100587.69;;;17.08;100.00
72110;BME280;59983;52.010;5.420;2023-07-31T09:57:08;100595.53;;;17.06;100.00
72110;BME280;59983;52.010;5.420;2023-07-31T09:59:35;100592.81;;;17.06;100.00
72110;BME280;59983;52.010;5.420;2023-07-31T10:02:02;100584.53;;;17.13;100.00
72110;BME280;59983;52.010;5.420;2023-07-31T10:04:29;100576.31;;;17.20;100.00
72110;BME280;59983;52.010;5.420;2023-07-31T10:06:57;100586.84;;;17.32;100.00
72110;BME280;59983;52.010;5.420;2023-07-31T10:09:25;100582.50;;;17.42;100.00
72110;BME280;59983;52.010;5.420;2023-07-31T10:11:59;100587.19;;;17.45;100.00
72110;BME280;59983;52.010;5.420;2023-07-31T10:14:27;100578.19;;;17.44;100.00
72110;BME280;59983;52.010;5.420;2023-07-31T10:16:56;100583.28;;;17.42;100.00
72110;BME280;59983;52.010;5.420;2023-07-31T10:19:23;100579.34;;;17.50;100.00
72110;BME280;59983;52.010;5.420;2023-07-31T10:21:50;100580.91;;;17.48;100.00
72110;BME280;59983;52.010;5.420;2023-07-31T10:24:17;100592.28;;;17.46;100.00
72110;BME280;59983;52.010;5.420;2023-07-31T10:26:45;100589.16;;;17.44;100.00
72110;BME280;59983;52.010;5.420;2023-07-31T10:29:15;100596.56;;;17.47;100.00
72110;BME280;59983;52.010;5.420;2023-07-31T10:31:42;100592.28;;;17.50;100.00
72110;BME280;59983;52.010;5.420;2023-07-31T10:34:09;100582.47;;;17.52;100.00
72110;BME280;59983;52.010;5.420;2023-07-31T10:36:36;100582.44;;;17.60;100.00
72110;BME280;59983;52.010;5.420;2023-07-31T10:39:04;100576.16;;;17.63;100.00
72110;BME280;59983;52.010;5.420;2023-07-31T10:41:31;100587.91;;;17.63;100.00
72110;BME280;59983;52.010;5.420;2023-07-31T10:44:00;100582.78;;;17.69;100.00
72110;BME280;59983;52.010;5.420;2023-07-31T10:46:30;100587.88;;;17.67;100.00
72110;BME280;59983;52.010;5.420;2023-07-31T10:48:58;100583.19;;;17.64;100.00
72110;BME280;59983;52.010;5.420;2023-07-31T10:51:35;100588.69;;;17.71;100.00
72110;BME280;59983;52.010;5.420;2023-07-31T10:54:15;100594.16;;;17.71;100.00
72110;BME280;59983;52.010;5.420;2023-07-31T10:56:45;100587.88;;;17.74;100.00
72110;BME280;59983;52.010;5.420;2023-07-31T10:59:13;100592.56;;;17.73;100.00
72110;BME280;59983;52.010;5.420;2023-07-31T11:04:22;100577.31;;;17.69;100.00
72110;BME280;59983;52.010;5.420;2023-07-31T11:06:57;100570.66;;;17.70;100.00
72110;BME280;59983;52.010;5.420;2023-07-31T11:09:28;100588.28;;;17.62;100.00
72110;BME280;59983;52.010;5.420;2023-07-31T11:11:56;100582.06;;;17.54;100.00
72110;BME280;59983;52.010;5.420;2023-07-31T11:14:23;100581.69;;;17.48;100.00
72110;BME280;59983;52.010;5.420;2023-07-31T11:16:50;100584.41;;;17.48;100.00
72110;BME280;59983;52.010;5.420;2023-07-31T11:19:22;100582.09;;;17.50;100.00
72110;BME280;59983;52.010;5.420;2023-07-31T11:21:53;100586.38;;;17.51;100.00
72110;BME280;59983;52.010;5.420;2023-07-31T11:24:20;100582.06;;;17.54;100.00
72110;BME280;59983;52.010;5.420;2023-07-31T11:26:53;100575.38;;;17.55;100.00
72110;BME280;59983;52.010;5.420;2023-07-31T11:29:20;100574.22;;;17.60;100.00
72110;BME280;59983;52.010;5.420;2023-07-31T11:31:47;100571.47;;;17.60;100.00
72110;BME280;59983;52.010;5.420;2023-07-31T11:34:15;100577.69;;;17.64;100.00
72110;BME280;59983;52.010;5.420;2023-07-31T11:36:53;100568.69;;;17.63;100.00
72110;BME280;59983;52.010;5.420;2023-07-31T11:39:20;100565.91;;;17.67;100.00
72110;BME280;59983;52.010;5.420;2023-07-31T11:41:46;100564.72;;;17.75;100.00
72110;BME280;59983;52.010;5.420;2023-07-31T11:44:13;100560.41;;;17.85;100.00
72110;BME280;59983;52.010;5.420;2023-07-31T11:46:56;100575.22;;;17.94;100.00
72110;BME280;59983;52.010;5.420;2023-07-31T11:49:23;100557.16;;;17.97;100.00
72110;BME280;59983;52.010;5.420;2023-07-31T11:51:50;100563.81;;;17.99;100.00
72110;BME280;59983;52.010;5.420;2023-07-31T11:54:16;100566.16;;;18.04;100.00
72110;BME280;59983;52.010;5.420;2023-07-31T11:56:43;100573.94;;;18.09;100.00
72110;BME280;59983;52.010;5.420;2023-07-31T11:59:11;100556.72;;;18.05;100.00
72110;BME280;59983;52.010;5.420;2023-07-31T12:01:39;100551.22;;;18.05;100.00
72110;BME280;59983;52.010;5.420;2023-07-31T12:04:06;100564.59;;;18.03;100.00
72110;BME280;59983;52.010;5.420;2023-07-31T12:06:36;100564.19;;;18.01;100.00
72110;BME280;59983;52.010;5.420;2023-07-31T12:09:05;100573.59;;;18.00;100.00
72110;BME280;59983;52.010;5.420;2023-07-31T12:11:42;100571.63;;;18.04;100.00
72110;BME280;59983;52.010;5.420;2023-07-31T12:14:26;100566.50;;;18.06;100.00
72110;BME280;59983;52.010;5.420;2023-07-31T12:16:56;100574.75;;;18.06;100.00
72110;BME280;59983;52.010;5.420;2023-07-31T12:19:24;100589.28;;;18.00;100.00
72110;BME280;59983;52.010;5.420;2023-07-31T12:21:54;100570.91;;;17.93;100.00
72110;BME280;59983;52.010;5.420;2023-07-31T12:24:21;100572.13;;;17.89;100.00
72110;BME280;59983;52.010;5.420;2023-07-31T12:26:48;100559.22;;;17.86;100.00
72110;BME280;59983;52.010;5.420;2023-07-31T12:29:15;100556.84;;;17.84;100.00
72110;BME280;59983;52.010;5.420;2023-07-31T12:31:42;100549.00;;;17.86;100.00
72110;BME280;59983;52.010;5.420;2023-07-31T12:34:19;100550.91;;;17.93;100.00
72110;BME280;59983;52.010;5.420;2023-07-31T12:36:47;100546.97;;;17.97;100.00
72110;BME280;59983;52.010;5.420;2023-07-31T12:39:17;100539.47;;;18.01;100.00
72110;BME280;59983;52.010;5.420;2023-07-31T12:41:43;100536.28;;;18.10;100.00
72110;BME280;59983;52.010;5.420;2023-07-31T12:44:10;100528.81;;;18.14;100.00
72110;BME280;59983;52.010;5.420;2023-07-31T12:46:36;100530.38;;;18.15;100.00
72110;BME280;59983;52.010;5.420;2023-07-31T12:49:04;100530.34;;;18.19;100.00
72110;BME280;59983;52.010;5.420;2023-07-31T12:51:30;100526.03;;;18.21;100.00